Time;durP1;ratioP1;P1;durP2;ratioP2;P2;SDS_P1;SDS_P2;PMS_P1;PMS_P2;Temp;Humidity;BMP_temperature;BMP_pressure;BME280_temperature;BME280_humidity;BME280_pressure;Samples;Min_cycle;Max_cycle;Signal;HPM_P1;HPM_P2
2023/03/30 00:00:41;;;;;;;;;;;14.40;99.90;;;;;;4988259;28;19913;-90
2023/03/30 00:03:07;;;;;;;;;;;14.50;99.90;;;;;;5003511;28;19917;-88
2023/03/30 00:05:33;;;;;;;;;;;14.50;99.90;;;;;;5002187;28;20359;-89
2023/03/30 00:07:59;;;;;;;;;;;14.50;99.90;;;;;;4983529;28;19929;-88
2023/03/30 00:10:26;;;;;;;;;;;14.50;99.90;;;;;;5000358;28;19919;-88
2023/03/30 00:12:51;;;;;;;;;;;14.50;99.90;;;;;;4986172;28;20393;-89
2023/03/30 00:15:19;;;;;;;;;;;14.50;99.90;;;;;;5000003;28;20004;-88
2023/03/30 00:17:44;;;;;;;;;;;14.50;99.90;;;;;;5000131;28;19910;-88
2023/03/30 00:20:11;;;;;;;;;;;14.50;99.90;;;;;;5000249;28;19967;-89
2023/03/30 00:22:37;;;;;;;;;;;14.50;99.90;;;;;;5000317;28;19996;-89
2023/03/30 00:25:04;;;;;;;;;;;14.50;99.90;;;;;;5000514;28;19910;-89
2023/03/30 00:27:30;;;;;;;;;;;14.50;99.90;;;;;;4984411;28;19918;-88
2023/03/30 00:29:55;;;;;;;;;;;14.50;99.90;;;;;;4984560;28;19935;-90
2023/03/30 00:32:21;;;;;;;;;;;14.50;99.90;;;;;;5000373;28;19909;-90
2023/03/30 00:34:46;;;;;;;;;;;14.50;99.90;;;;;;5000518;28;19913;-89
2023/03/30 00:37:12;;;;;;;;;;;14.50;99.90;;;;;;4984095;28;19936;-89
2023/03/30 00:39:38;;;;;;;;;;;14.60;99.90;;;;;;4999768;28;19909;-88
2023/03/30 00:42:03;;;;;;;;;;;14.50;99.90;;;;;;4999316;28;19921;-88
2023/03/30 00:44:48;;;;;;;;;;;14.50;99.90;;;;;;4983243;28;19914;-88
2023/03/30 00:47:14;;;;;;;;;;;14.50;99.90;;;;;;4999011;28;19914;-88
2023/03/30 00:49:40;;;;;;;;;;;14.50;99.90;;;;;;4999155;28;20396;-88
2023/03/30 00:52:07;;;;;;;;;;;14.50;99.90;;;;;;4999568;28;19909;-88
2023/03/30 00:54:32;;;;;;;;;;;14.50;99.90;;;;;;4983664;28;19914;-89
2023/03/30 00:56:58;;;;;;;;;;;14.50;99.90;;;;;;5000454;28;20009;-88
2023/03/30 00:59:23;;;;;;;;;;;14.50;99.90;;;;;;4982705;28;19940;-88
2023/03/30 01:01:49;;;;;;;;;;;14.60;99.90;;;;;;4983442;28;19913;-89
2023/03/30 01:04:15;;;;;;;;;;;14.60;99.90;;;;;;4984171;28;19920;-88
2023/03/30 01:06:44;;;;;;;;;;;14.60;99.90;;;;;;5000000;28;19914;-88
2023/03/30 01:09:10;;;;;;;;;;;14.60;99.90;;;;;;5016545;28;19972;-89
2023/03/30 01:11:36;;;;;;;;;;;14.60;99.90;;;;;;5002648;28;19935;-89
2023/03/30 01:14:03;;;;;;;;;;;14.60;99.90;;;;;;4999112;28;19995;-89
2023/03/30 01:16:38;;;;;;;;;;;14.60;99.90;;;;;;4999259;28;20416;-90
2023/03/30 01:19:22;;;;;;;;;;;14.70;99.90;;;;;;4999404;28;20049;-89
2023/03/30 01:22:07;;;;;;;;;;;14.60;99.90;;;;;;4998986;28;19917;-89
2023/03/30 01:24:47;;;;;;;;;;;14.70;99.90;;;;;;5016754;28;19909;-89
2023/03/30 01:27:25;;;;;;;;;;;14.70;99.90;;;;;;4998527;28;19914;-88
2023/03/30 01:30:06;;;;;;;;;;;14.60;99.90;;;;;;5015912;28;20465;-88
2023/03/30 01:32:42;;;;;;;;;;;14.70;99.90;;;;;;4998158;28;20000;-88
2023/03/30 01:35:20;;;;;;;;;;;14.60;99.90;;;;;;4998559;28;20278;-88
2023/03/30 01:38:05;;;;;;;;;;;14.60;99.90;;;;;;4998206;28;19909;-88
2023/03/30 01:40:43;;;;;;;;;;;14.60;99.90;;;;;;4997528;28;20449;-88
2023/03/30 01:43:19;;;;;;;;;;;14.60;99.90;;;;;;4998330;28;20012;-88
2023/03/30 01:45:48;;;;;;;;;;;14.60;99.90;;;;;;4998029;28;19914;-88
2023/03/30 01:48:32;;;;;;;;;;;14.60;99.90;;;;;;4998134;28;19917;-88
2023/03/30 01:51:04;;;;;;;;;;;14.60;99.90;;;;;;4999522;28;19956;-89
2023/03/30 01:53:33;;;;;;;;;;;14.60;99.90;;;;;;5000288;28;19917;-88
2023/03/30 01:56:09;;;;;;;;;;;14.60;99.90;;;;;;4999356;28;19913;-88
2023/03/30 01:58:35;;;;;;;;;;;14.60;99.90;;;;;;5014800;28;20051;-88
2023/03/30 02:01:02;;;;;;;;;;;14.60;99.90;;;;;;4997900;28;19964;-88
2023/03/30 02:03:30;;;;;;;;;;;14.60;99.90;;;;;;4997616;28;19993;-88
2023/03/30 02:06:02;;;;;;;;;;;14.60;99.90;;;;;;5015236;28;19918;-88
2023/03/30 02:08:30;;;;;;;;;;;14.60;99.90;;;;;;4997377;28;19922;-88
2023/03/30 02:10:57;;;;;;;;;;;14.60;99.90;;;;;;4997760;28;20311;-88
2023/03/30 02:13:25;;;;;;;;;;;14.70;99.90;;;;;;5015113;28;20278;-88
2023/03/30 02:15:55;;;;;;;;;;;14.70;99.90;;;;;;4998115;28;19913;-91
2023/03/30 02:18:21;;;;;;;;;;;14.70;99.90;;;;;;4998811;28;20008;-91
2023/03/30 02:20:48;;;;;;;;;;;14.70;99.90;;;;;;4998034;28;20351;-91
2023/03/30 02:23:16;;;;;;;;;;;14.70;99.90;;;;;;4985863;28;19914;-90
2023/03/30 02:25:42;;;;;;;;;;;14.70;99.90;;;;;;5001250;28;19913;-89
2023/03/30 02:28:08;;;;;;;;;;;14.70;99.90;;;;;;4998215;28;19909;-89
2023/03/30 02:30:34;;;;;;;;;;;14.70;99.90;;;;;;4997935;28;19910;-89
2023/03/30 02:33:00;;;;;;;;;;;14.70;99.90;;;;;;4997864;28;20350;-89
2023/03/30 02:35:46;;;;;;;;;;;14.70;99.90;;;;;;4997855;28;19916;-89
2023/03/30 02:38:17;;;;;;;;;;;14.70;99.90;;;;;;4996923;28;19910;-89
2023/03/30 02:41:01;;;;;;;;;;;14.60;99.90;;;;;;5015178;28;20049;-90
2023/03/30 02:43:43;;;;;;;;;;;14.60;99.90;;;;;;4998251;28;19909;-89
2023/03/30 02:46:18;;;;;;;;;;;14.60;99.90;;;;;;5017390;28;20014;-91
2023/03/30 02:48:55;;;;;;;;;;;14.60;99.90;;;;;;4998600;28;20355;-89
2023/03/30 02:51:30;;;;;;;;;;;14.60;99.90;;;;;;4998803;28;19916;-89
2023/03/30 02:54:15;;;;;;;;;;;14.60;99.90;;;;;;5015682;28;20247;-88
2023/03/30 02:56:47;;;;;;;;;;;14.60;99.90;;;;;;4996971;28;19909;-88
2023/03/30 02:59:20;;;;;;;;;;;14.60;99.90;;;;;;4996785;28;19909;-88
2023/03/30 03:01:56;;;;;;;;;;;14.60;99.90;;;;;;5014629;28;19910;-88
2023/03/30 03:04:23;;;;;;;;;;;14.70;99.90;;;;;;4997272;28;19974;-88
2023/03/30 03:06:51;;;;;;;;;;;14.60;99.90;;;;;;4997052;28;19934;-89
2023/03/30 03:09:18;;;;;;;;;;;14.60;99.90;;;;;;4999492;28;19921;-89
2023/03/30 03:11:44;;;;;;;;;;;14.60;99.90;;;;;;5001431;28;20001;-90
2023/03/30 03:14:10;;;;;;;;;;;14.60;99.90;;;;;;5001311;28;19949;-89
2023/03/30 03:16:36;;;;;;;;;;;14.60;99.90;;;;;;5018897;28;20351;-89
2023/03/30 03:19:02;;;;;;;;;;;14.60;99.90;;;;;;4985531;28;19913;-90
2023/03/30 03:21:27;;;;;;;;;;;14.60;99.90;;;;;;5001835;28;19910;-88
2023/03/30 03:23:53;;;;;;;;;;;14.60;99.90;;;;;;4986078;28;19914;-91
2023/03/30 03:26:19;;;;;;;;;;;14.60;99.90;;;;;;4985826;28;19925;-91
2023/03/30 03:28:44;;;;;;;;;;;14.60;99.90;;;;;;4985967;28;19914;-90
2023/03/30 03:31:11;;;;;;;;;;;14.50;99.90;;;;;;4985416;28;19920;-91
2023/03/30 03:33:36;;;;;;;;;;;14.50;99.90;;;;;;5001212;28;20278;-90
2023/03/30 03:36:02;;;;;;;;;;;14.50;99.90;;;;;;5001222;28;19932;-91
2023/03/30 03:38:28;;;;;;;;;;;14.50;99.90;;;;;;4991843;28;19913;-90
2023/03/30 03:40:55;;;;;;;;;;;14.50;99.90;;;;;;5002766;28;19910;-89
2023/03/30 03:43:21;;;;;;;;;;;14.50;99.90;;;;;;5000765;28;20274;-89
2023/03/30 03:45:47;;;;;;;;;;;14.50;99.90;;;;;;5000777;28;19939;-90
2023/03/30 03:48:14;;;;;;;;;;;14.50;99.90;;;;;;4985072;28;19918;-91
2023/03/30 03:50:40;;;;;;;;;;;14.50;99.90;;;;;;4985237;28;20286;-90
2023/03/30 03:53:06;;;;;;;;;;;14.50;99.90;;;;;;5001116;28;20355;-89
2023/03/30 03:55:34;;;;;;;;;;;14.40;99.90;;;;;;4985289;28;20372;-90
2023/03/30 03:58:00;;;;;;;;;;;14.50;99.90;;;;;;4984835;28;20363;-90
2023/03/30 04:00:25;;;;;;;;;;;14.50;99.90;;;;;;5003173;28;19909;-90
2023/03/30 04:02:51;;;;;;;;;;;14.50;99.90;;;;;;5000941;28;20008;-90
2023/03/30 04:05:16;;;;;;;;;;;14.50;99.90;;;;;;4984785;28;19917;-90
2023/03/30 04:07:45;;;;;;;;;;;14.50;99.90;;;;;;4984135;28;20397;-90
2023/03/30 04:10:11;;;;;;;;;;;14.50;99.90;;;;;;4984900;28;20358;-90
2023/03/30 04:12:37;;;;;;;;;;;14.50;99.90;;;;;;4985520;28;19993;-88
2023/03/30 04:15:04;;;;;;;;;;;14.50;99.90;;;;;;4986903;28;19917;-88
2023/03/30 04:17:32;;;;;;;;;;;14.60;99.90;;;;;;5000211;28;19929;-87
2023/03/30 04:20:04;;;;;;;;;;;14.60;99.90;;;;;;4984364;28;19914;-88
2023/03/30 04:22:32;;;;;;;;;;;14.60;99.90;;;;;;4999811;28;19909;-88
2023/03/30 04:24:58;;;;;;;;;;;14.60;99.90;;;;;;4983750;28;19959;-89
2023/03/30 04:27:24;;;;;;;;;;;14.60;99.90;;;;;;4983587;28;20000;-88
2023/03/30 04:29:50;;;;;;;;;;;14.70;99.90;;;;;;4984861;28;19914;-90
2023/03/30 04:32:19;;;;;;;;;;;14.70;99.90;;;;;;5005648;28;19909;-90
2023/03/30 04:34:45;;;;;;;;;;;14.70;99.90;;;;;;5002057;28;20007;-90
2023/03/30 04:37:16;;;;;;;;;;;14.70;99.90;;;;;;5000697;28;19916;-92
2023/03/30 04:39:42;;;;;;;;;;;14.60;99.90;;;;;;5000806;28;19996;-92
2023/03/30 04:42:12;;;;;;;;;;;14.60;99.90;;;;;;4984927;28;19948;-91
2023/03/30 04:44:39;;;;;;;;;;;14.60;99.90;;;;;;5002580;28;19932;-91
2023/03/30 04:47:05;;;;;;;;;;;14.60;99.90;;;;;;5001460;28;20341;-91
2023/03/30 04:49:30;;;;;;;;;;;14.60;99.90;;;;;;5000992;28;19932;-91
2023/03/30 04:51:56;;;;;;;;;;;14.60;99.90;;;;;;4985049;28;20355;-92
2023/03/30 04:54:21;;;;;;;;;;;14.60;99.90;;;;;;4986082;28;19957;-91
2023/03/30 04:56:47;;;;;;;;;;;14.60;99.90;;;;;;4988310;28;19913;-90
2023/03/30 04:59:12;;;;;;;;;;;14.60;99.90;;;;;;5005299;28;19909;-91
2023/03/30 05:01:38;;;;;;;;;;;14.50;99.90;;;;;;4984875;28;19917;-90
2023/03/30 05:04:04;;;;;;;;;;;14.50;99.90;;;;;;5005670;28;20389;-90
2023/03/30 05:06:29;;;;;;;;;;;14.50;99.90;;;;;;4994218;28;19921;-91
2023/03/30 05:08:55;;;;;;;;;;;14.50;99.90;;;;;;5004302;28;19933;-91
2023/03/30 05:11:21;;;;;;;;;;;14.50;99.90;;;;;;4983865;28;19921;-88
2023/03/30 05:13:46;;;;;;;;;;;14.40;99.90;;;;;;4982900;28;19920;-89
2023/03/30 05:16:12;;;;;;;;;;;14.40;99.90;;;;;;4983431;28;19937;-92
2023/03/30 05:18:38;;;;;;;;;;;14.40;99.90;;;;;;4982796;28;19961;-92
2023/03/30 05:21:03;;;;;;;;;;;14.40;99.90;;;;;;5000339;28;19956;-92
2023/03/30 05:23:29;;;;;;;;;;;14.30;99.90;;;;;;5006988;28;19987;-92
2023/03/30 05:25:55;;;;;;;;;;;14.40;99.90;;;;;;4982643;28;20008;-92
2023/03/30 05:28:20;;;;;;;;;;;14.30;99.90;;;;;;4983332;28;19920;-92
2023/03/30 05:30:51;;;;;;;;;;;14.30;99.90;;;;;;4979864;28;20036;-92
2023/03/30 05:33:17;;;;;;;;;;;14.20;99.90;;;;;;4991947;28;19910;-90
2023/03/30 05:35:42;;;;;;;;;;;14.10;99.90;;;;;;4968150;28;19921;-92
2023/03/30 05:38:08;;;;;;;;;;;14.10;99.90;;;;;;4971956;28;19914;-91
2023/03/30 05:40:33;;;;;;;;;;;14.10;99.90;;;;;;4980236;28;19914;-92
2023/03/30 05:42:59;;;;;;;;;;;14.00;99.90;;;;;;4981637;28;19918;-92
2023/03/30 05:45:25;;;;;;;;;;;14.00;99.90;;;;;;5001200;28;19917;-92
2023/03/30 05:47:52;;;;;;;;;;;14.00;99.90;;;;;;4998487;28;19913;-92
2023/03/30 05:50:17;;;;;;;;;;;13.90;99.90;;;;;;5012229;28;19917;-91
2023/03/30 05:52:43;;;;;;;;;;;13.90;99.90;;;;;;4983332;28;19920;-90
2023/03/30 05:55:08;;;;;;;;;;;13.80;99.90;;;;;;4982054;28;20323;-90
2023/03/30 05:57:34;;;;;;;;;;;13.80;99.90;;;;;;4982021;28;20582;-90
2023/03/30 05:59:59;;;;;;;;;;;13.80;99.90;;;;;;4982447;28;19913;-91
2023/03/30 06:02:26;;;;;;;;;;;13.70;99.90;;;;;;4981926;28;20359;-91
2023/03/30 06:04:52;;;;;;;;;;;13.70;99.90;;;;;;4981886;28;19913;-90
2023/03/30 06:07:19;;;;;;;;;;;13.80;99.90;;;;;;4998014;28;19920;-91
2023/03/30 06:09:45;;;;;;;;;;;13.70;99.90;;;;;;4982958;28;19918;-91
2023/03/30 06:12:10;;;;;;;;;;;13.70;99.90;;;;;;4998988;28;20004;-91
2023/03/30 06:14:36;;;;;;;;;;;13.70;99.90;;;;;;4984148;28;19935;-91
2023/03/30 06:17:01;;;;;;;;;;;13.70;99.90;;;;;;4984349;28;20343;-90
2023/03/30 06:19:27;;;;;;;;;;;13.70;99.90;;;;;;5002272;28;20290;-91
2023/03/30 06:21:53;;;;;;;;;;;13.70;99.90;;;;;;4988288;28;19914;-90
2023/03/30 06:24:19;;;;;;;;;;;13.70;99.90;;;;;;5000384;28;19913;-91
2023/03/30 06:26:47;;;;;;;;;;;13.70;99.90;;;;;;4978754;28;19922;-89
2023/03/30 06:29:13;;;;;;;;;;;13.70;99.90;;;;;;4978460;28;19916;-91
2023/03/30 06:31:38;;;;;;;;;;;13.80;99.90;;;;;;4962589;28;19981;-91
2023/03/30 06:34:04;;;;;;;;;;;13.70;99.90;;;;;;4978284;28;20004;-91
2023/03/30 06:36:29;;;;;;;;;;;13.70;99.90;;;;;;4962019;28;20331;-91
2023/03/30 06:39:03;;;;;;;;;;;13.70;99.90;;;;;;4962662;28;19914;-89
2023/03/30 06:41:30;;;;;;;;;;;13.70;99.90;;;;;;4978453;28;19960;-89
2023/03/30 06:43:55;;;;;;;;;;;13.70;99.90;;;;;;4962087;28;19914;-91
2023/03/30 06:46:21;;;;;;;;;;;13.70;99.90;;;;;;4978074;28;19921;-91
2023/03/30 06:48:47;;;;;;;;;;;13.70;99.90;;;;;;4962476;28;19945;-90
2023/03/30 06:51:13;;;;;;;;;;;13.70;99.90;;;;;;4978296;28;19921;-90
2023/03/30 06:53:38;;;;;;;;;;;13.70;99.90;;;;;;4978392;28;20295;-89
2023/03/30 06:56:04;;;;;;;;;;;13.70;99.90;;;;;;4962564;28;19947;-90
2023/03/30 06:58:30;;;;;;;;;;;13.60;99.90;;;;;;4963312;28;19932;-90
2023/03/30 07:00:56;;;;;;;;;;;13.60;99.90;;;;;;4961917;28;20346;-90
2023/03/30 07:03:22;;;;;;;;;;;13.60;99.90;;;;;;4962130;28;20003;-90
2023/03/30 07:05:49;;;;;;;;;;;13.50;99.90;;;;;;4978370;28;19914;-90
2023/03/30 07:08:14;;;;;;;;;;;13.50;99.90;;;;;;4977701;28;19929;-90
2023/03/30 07:10:40;;;;;;;;;;;13.50;99.90;;;;;;4978578;28;19914;-91
2023/03/30 07:13:06;;;;;;;;;;;13.50;99.90;;;;;;4978439;28;20282;-90
2023/03/30 07:15:32;;;;;;;;;;;13.50;99.90;;;;;;4962141;28;19918;-92
2023/03/30 07:17:58;;;;;;;;;;;13.50;99.90;;;;;;4978034;28;19972;-91
2023/03/30 07:20:23;;;;;;;;;;;13.50;99.90;;;;;;4977933;28;19917;-91
2023/03/30 07:22:49;;;;;;;;;;;13.50;99.90;;;;;;4962133;28;19917;-91
2023/03/30 07:25:14;;;;;;;;;;;13.50;99.90;;;;;;4977993;28;20004;-91
2023/03/30 07:27:40;;;;;;;;;;;13.60;99.90;;;;;;4986514;28;19914;-91
2023/03/30 07:30:06;;;;;;;;;;;13.60;99.90;;;;;;4998047;28;19910;-91
2023/03/30 07:32:32;;;;;;;;;;;13.70;99.90;;;;;;4997426;28;19910;-90
2023/03/30 07:34:57;;;;;;;;;;;13.70;99.90;;;;;;4980899;28;19920;-90
2023/03/30 07:37:23;;;;;;;;;;;13.70;99.90;;;;;;4980835;28;20005;-90
2023/03/30 07:39:49;;;;;;;;;;;13.70;99.90;;;;;;4980725;28;19924;-91
2023/03/30 07:42:14;;;;;;;;;;;13.80;99.90;;;;;;4980875;28;19920;-90
2023/03/30 07:44:40;;;;;;;;;;;13.80;99.90;;;;;;4997347;28;20329;-90
2023/03/30 07:47:05;;;;;;;;;;;13.90;99.90;;;;;;4980585;28;19924;-90
2023/03/30 07:49:31;;;;;;;;;;;14.00;99.90;;;;;;4994947;28;19914;-90
2023/03/30 07:51:58;;;;;;;;;;;14.00;99.90;;;;;;4997211;28;19964;-90
2023/03/30 07:54:23;;;;;;;;;;;14.00;99.90;;;;;;4997263;28;19937;-90
2023/03/30 07:56:52;;;;;;;;;;;14.10;99.90;;;;;;5014460;28;20367;-91
2023/03/30 07:59:18;;;;;;;;;;;14.10;99.90;;;;;;5014629;28;19924;-91
2023/03/30 08:01:45;;;;;;;;;;;14.10;99.90;;;;;;5004988;28;19909;-91
2023/03/30 08:04:11;;;;;;;;;;;14.10;99.90;;;;;;4984569;28;19914;-90
2023/03/30 08:06:37;;;;;;;;;;;14.10;99.90;;;;;;5000739;28;20359;-89
2023/03/30 08:09:03;;;;;;;;;;;14.20;99.90;;;;;;4984217;28;19925;-89
2023/03/30 08:11:30;;;;;;;;;;;14.20;99.90;;;;;;4984081;28;20151;-89
2023/03/30 08:13:56;;;;;;;;;;;14.20;99.90;;;;;;5000347;28;19924;-90
2023/03/30 08:16:21;;;;;;;;;;;14.20;99.90;;;;;;5000815;28;19909;-90
2023/03/30 08:18:47;;;;;;;;;;;14.20;99.90;;;;;;5000672;28;19909;-91
2023/03/30 08:21:13;;;;;;;;;;;14.20;99.90;;;;;;4986342;28;19914;-91
2023/03/30 08:23:38;;;;;;;;;;;14.20;99.90;;;;;;5004186;28;20076;-91
2023/03/30 08:26:04;;;;;;;;;;;14.20;99.90;;;;;;4987110;28;19924;-91
2023/03/30 08:28:30;;;;;;;;;;;14.30;99.90;;;;;;4986511;28;19980;-91
2023/03/30 08:31:01;;;;;;;;;;;14.30;99.90;;;;;;4986894;28;19913;-92
2023/03/30 08:33:27;;;;;;;;;;;14.30;99.90;;;;;;5019959;28;19964;-91
2023/03/30 08:35:53;;;;;;;;;;;14.30;99.90;;;;;;4987110;28;19914;-91
2023/03/30 08:38:18;;;;;;;;;;;14.40;99.90;;;;;;4987058;28;20256;-91
2023/03/30 08:40:45;;;;;;;;;;;14.40;99.90;;;;;;4988125;28;19914;-91
2023/03/30 08:43:13;;;;;;;;;;;14.50;99.90;;;;;;5002842;28;19953;-91
2023/03/30 08:45:40;;;;;;;;;;;14.50;99.90;;;;;;5002937;28;19924;-91
2023/03/30 08:48:10;;;;;;;;;;;14.60;99.90;;;;;;4987282;28;19948;-91
2023/03/30 08:50:36;;;;;;;;;;;14.60;99.90;;;;;;5000033;28;19917;-91
2023/03/30 08:53:03;;;;;;;;;;;14.60;99.90;;;;;;4984918;28;19914;-91
2023/03/30 08:55:31;;;;;;;;;;;14.60;99.90;;;;;;4987717;28;19917;-91
2023/03/30 08:57:57;;;;;;;;;;;14.60;99.90;;;;;;4987105;28;19910;-90
2023/03/30 09:00:29;;;;;;;;;;;14.70;99.90;;;;;;5015753;28;19998;-90
2023/03/30 09:03:28;;;;;;;;;;;14.60;99.90;;;;;;5015968;28;19917;-91
2023/03/30 09:05:55;;;;;;;;;;;14.70;99.90;;;;;;4979539;28;19920;-91
2023/03/30 09:08:22;;;;;;;;;;;14.60;99.90;;;;;;5019271;28;19962;-92
2023/03/30 09:10:55;;;;;;;;;;;14.60;99.90;;;;;;5019334;28;19959;-90
2023/03/30 09:13:22;;;;;;;;;;;14.60;99.90;;;;;;5019928;28;19909;-91
2023/03/30 09:15:51;;;;;;;;;;;14.60;99.90;;;;;;5020181;28;19916;-92
2023/03/30 09:18:29;;;;;;;;;;;14.70;99.90;;;;;;5020175;28;20038;-91
2023/03/30 09:20:57;;;;;;;;;;;14.60;99.90;;;;;;5021360;28;19953;-93
2023/03/30 09:23:23;;;;;;;;;;;14.60;99.90;;;;;;5019137;28;20012;-89
2023/03/30 09:25:52;;;;;;;;;;;14.70;99.90;;;;;;5017894;28;19913;-89
2023/03/30 09:28:32;;;;;;;;;;;14.70;99.90;;;;;;5008184;28;20000;-90
2023/03/30 09:31:16;;;;;;;;;;;14.70;99.90;;;;;;4999274;28;19916;-93
2023/03/30 09:34:01;;;;;;;;;;;14.70;99.90;;;;;;4999629;28;20322;-92
2023/03/30 09:36:30;;;;;;;;;;;14.70;99.90;;;;;;4999403;28;19916;-93
2023/03/30 09:38:55;;;;;;;;;;;14.70;99.90;;;;;;4999442;28;19910;-93
2023/03/30 09:41:40;;;;;;;;;;;14.70;99.90;;;;;;5000134;28;19955;-92
2023/03/30 09:44:08;;;;;;;;;;;14.60;99.90;;;;;;4999659;28;19917;-93
2023/03/30 09:46:34;;;;;;;;;;;14.70;99.90;;;;;;4999061;28;19917;-92
2023/03/30 09:49:14;;;;;;;;;;;14.70;99.90;;;;;;4983203;28;19983;-92
2023/03/30 09:51:59;;;;;;;;;;;14.70;99.90;;;;;;4998792;28;19910;-91
2023/03/30 09:54:32;;;;;;;;;;;14.70;99.90;;;;;;4998885;28;19909;-92
2023/03/30 09:56:58;;;;;;;;;;;14.70;99.90;;;;;;4999384;28;19917;-92
2023/03/30 09:59:29;;;;;;;;;;;14.70;99.90;;;;;;4984165;28;19914;-92
2023/03/30 10:02:15;;;;;;;;;;;14.80;99.90;;;;;;5000473;28;20020;-93
2023/03/30 10:04:52;;;;;;;;;;;14.90;99.90;;;;;;4998709;28;19909;-94
2023/03/30 10:07:22;;;;;;;;;;;14.90;99.90;;;;;;4998267;28;20023;-93
2023/03/30 10:09:48;;;;;;;;;;;14.90;99.90;;;;;;4998278;28;19929;-93
2023/03/30 10:12:14;;;;;;;;;;;15.00;99.90;;;;;;4982229;28;19914;-92
2023/03/30 10:14:39;;;;;;;;;;;15.00;99.90;;;;;;4998465;28;19921;-90
2023/03/30 10:17:05;;;;;;;;;;;15.10;99.90;;;;;;4986261;28;20406;-90
2023/03/30 10:19:34;;;;;;;;;;;15.10;99.90;;;;;;4997838;28;19962;-93
2023/03/30 10:22:02;;;;;;;;;;;15.20;99.90;;;;;;5016890;28;19996;-91
2023/03/30 10:24:32;;;;;;;;;;;15.20;99.90;;;;;;5000006;28;19997;-91
2023/03/30 10:27:02;;;;;;;;;;;15.20;99.90;;;;;;4981726;28;19917;-92
2023/03/30 10:29:28;;;;;;;;;;;15.20;99.90;;;;;;4998067;28;20421;-91
2023/03/30 10:31:59;;;;;;;;;;;15.30;99.90;;;;;;4998330;28;19909;-91
2023/03/30 10:34:31;;;;;;;;;;;15.30;99.90;;;;;;4998028;28;19916;-90
2023/03/30 10:36:57;;;;;;;;;;;15.30;99.90;;;;;;5004441;28;19926;-91
2023/03/30 10:39:30;;;;;;;;;;;15.20;99.90;;;;;;4991783;28;19986;-91
2023/03/30 10:41:58;;;;;;;;;;;15.20;99.90;;;;;;5004279;28;19914;-90
2023/03/30 10:44:31;;;;;;;;;;;15.20;99.90;;;;;;5004237;28;19917;-92
2023/03/30 10:47:06;;;;;;;;;;;15.20;99.90;;;;;;5001094;28;19953;-90
2023/03/30 10:49:40;;;;;;;;;;;15.20;99.90;;;;;;5000868;28;19910;-90
2023/03/30 10:52:22;;;;;;;;;;;15.20;99.90;;;;;;4990782;28;19913;-93
2023/03/30 10:54:51;;;;;;;;;;;15.20;99.90;;;;;;5009829;28;20378;-91
2023/03/30 10:57:18;;;;;;;;;;;15.20;99.90;;;;;;5000355;28;19909;-92
2023/03/30 10:59:53;;;;;;;;;;;15.30;99.90;;;;;;4997445;28;19917;-90
2023/03/30 11:02:23;;;;;;;;;;;15.30;99.90;;;;;;4997589;28;19913;-91
2023/03/30 11:04:50;;;;;;;;;;;15.30;99.90;;;;;;4998038;28;20379;-91
2023/03/30 11:07:20;;;;;;;;;;;15.30;99.90;;;;;;4997605;28;19920;-91
2023/03/30 11:09:50;;;;;;;;;;;15.40;99.90;;;;;;4997657;28;19997;-90
2023/03/30 11:12:19;;;;;;;;;;;15.40;99.90;;;;;;4993765;28;19929;-90
2023/03/30 11:14:44;;;;;;;;;;;15.40;99.90;;;;;;4962188;28;20000;-90
2023/03/30 11:17:16;;;;;;;;;;;15.40;99.90;;;;;;4977657;28;19910;-89
2023/03/30 11:19:45;;;;;;;;;;;15.40;99.90;;;;;;4997832;28;19909;-90
2023/03/30 11:22:10;;;;;;;;;;;15.40;99.90;;;;;;5015252;28;19948;-89
2023/03/30 11:24:39;;;;;;;;;;;15.40;99.90;;;;;;5016728;28;19959;-90
2023/03/30 11:27:16;;;;;;;;;;;15.50;99.90;;;;;;5010403;28;19913;-92
2023/03/30 11:29:47;;;;;;;;;;;15.50;99.90;;;;;;4984128;28;19910;-91
2023/03/30 11:32:23;;;;;;;;;;;15.50;99.90;;;;;;4997413;28;19914;-92
2023/03/30 11:34:59;;;;;;;;;;;15.60;99.90;;;;;;5000999;28;19972;-91
2023/03/30 11:37:31;;;;;;;;;;;15.50;99.90;;;;;;5001110;28;19917;-91
2023/03/30 11:40:15;;;;;;;;;;;15.50;99.90;;;;;;5001144;28;20049;-92
2023/03/30 11:42:41;;;;;;;;;;;15.50;99.90;;;;;;5001224;28;20004;-92
2023/03/30 11:45:19;;;;;;;;;;;15.60;99.90;;;;;;5002045;28;19910;-92
2023/03/30 11:48:00;;;;;;;;;;;15.70;99.90;;;;;;4982335;28;20001;-93
2023/03/30 11:50:35;;;;;;;;;;;15.80;99.90;;;;;;4990012;28;19909;-93
2023/03/30 11:53:16;;;;;;;;;;;15.90;99.90;;;;;;5018299;28;20322;-91
2023/03/30 11:55:47;;;;;;;;;;;16.00;99.90;;;;;;5017984;28;19909;-91
2023/03/30 11:58:13;;;;;;;;;;;16.20;99.90;;;;;;5000776;28;19944;-92
2023/03/30 12:00:45;;;;;;;;;;;16.20;99.90;;;;;;4998558;28;20469;-91
2023/03/30 12:03:18;;;;;;;;;;;16.30;99.90;;;;;;4996014;28;19909;-90
2023/03/30 12:05:55;;;;;;;;;;;16.40;99.90;;;;;;5000418;28;19914;-90
2023/03/30 12:08:32;;;;;;;;;;;16.40;99.90;;;;;;4996735;28;19918;-91
2023/03/30 12:11:08;;;;;;;;;;;16.40;99.90;;;;;;5000527;28;19956;-91
2023/03/30 12:13:33;;;;;;;;;;;16.40;99.90;;;;;;4998890;28;19995;-92
2023/03/30 12:16:08;;;;;;;;;;;16.40;99.90;;;;;;4998418;28;19957;-92
2023/03/30 12:18:42;;;;;;;;;;;16.40;99.90;;;;;;4990429;28;19909;-92
2023/03/30 12:21:10;;;;;;;;;;;16.40;99.90;;;;;;5000738;28;19909;-91
2023/03/30 12:23:38;;;;;;;;;;;16.40;99.90;;;;;;5000616;28;19909;-93
2023/03/30 12:26:06;;;;;;;;;;;16.40;99.90;;;;;;5014844;28;19921;-90
2023/03/30 12:28:42;;;;;;;;;;;16.40;99.90;;;;;;4983426;28;19974;-91
2023/03/30 12:31:07;;;;;;;;;;;16.30;99.90;;;;;;4995080;28;19932;-92
2023/03/30 12:33:48;;;;;;;;;;;16.30;99.90;;;;;;5000274;28;19992;-92
2023/03/30 12:36:33;;;;;;;;;;;16.30;99.90;;;;;;5000569;28;19910;-93
2023/03/30 12:39:09;;;;;;;;;;;16.20;99.90;;;;;;5000280;28;20252;-92
2023/03/30 12:41:41;;;;;;;;;;;16.20;99.90;;;;;;4998361;28;19936;-93
2023/03/30 12:44:13;;;;;;;;;;;16.10;99.90;;;;;;4997021;28;19924;-89
2023/03/30 12:46:42;;;;;;;;;;;16.10;99.90;;;;;;5002184;28;19917;-92
2023/03/30 12:49:23;;;;;;;;;;;16.10;99.90;;;;;;5012037;28;20362;-90
2023/03/30 12:51:59;;;;;;;;;;;16.10;99.90;;;;;;5019095;28;19955;-89
2023/03/30 12:54:24;;;;;;;;;;;16.10;99.90;;;;;;5019068;28;19909;-91
2023/03/30 12:56:56;;;;;;;;;;;16.20;99.90;;;;;;5019593;28;19916;-91
2023/03/30 12:59:41;;;;;;;;;;;16.20;99.90;;;;;;5015972;28;19937;-89
2023/03/30 13:02:21;;;;;;;;;;;16.40;99.90;;;;;;5000032;28;19909;-92
2023/03/30 13:04:47;;;;;;;;;;;16.50;99.90;;;;;;4999896;28;19910;-93
2023/03/30 13:07:16;;;;;;;;;;;16.60;99.90;;;;;;4983379;28;19918;-89
2023/03/30 13:09:58;;;;;;;;;;;16.60;99.90;;;;;;4998839;28;20031;-90
2023/03/30 13:12:30;;;;;;;;;;;16.70;99.90;;;;;;4999677;28;19916;-89
2023/03/30 13:15:16;;;;;;;;;;;16.70;99.90;;;;;;4998919;28;19916;-90
2023/03/30 13:17:47;;;;;;;;;;;16.80;99.90;;;;;;4997793;28;19913;-89
2023/03/30 13:20:15;;;;;;;;;;;16.80;99.90;;;;;;4998998;28;20007;-90
2023/03/30 13:22:51;;;;;;;;;;;16.90;99.90;;;;;;5000481;28;19910;-91
2023/03/30 13:25:25;;;;;;;;;;;16.90;99.50;;;;;;5000207;28;20292;-91
2023/03/30 13:27:51;;;;;;;;;;;17.00;99.80;;;;;;4999416;28;19916;-91
2023/03/30 13:30:18;;;;;;;;;;;16.90;99.60;;;;;;4999075;28;20004;-91
2023/03/30 13:33:03;;;;;;;;;;;16.90;99.30;;;;;;4982921;28;20293;-90
2023/03/30 13:35:35;;;;;;;;;;;16.80;99.30;;;;;;4999390;28;19959;-89
2023/03/30 13:38:00;;;;;;;;;;;16.80;98.80;;;;;;4998909;28;19916;-91
2023/03/30 13:40:32;;;;;;;;;;;16.70;99.50;;;;;;4999157;28;20008;-91
2023/03/30 13:42:58;;;;;;;;;;;16.60;99.90;;;;;;4998748;28;19916;-92
2023/03/30 13:45:29;;;;;;;;;;;16.60;99.90;;;;;;4998736;28;19910;-91
2023/03/30 13:47:55;;;;;;;;;;;16.60;99.90;;;;;;4999130;28;20056;-91
2023/03/30 13:50:26;;;;;;;;;;;16.60;99.90;;;;;;4998851;28;19945;-92
2023/03/30 13:52:54;;;;;;;;;;;16.60;99.90;;;;;;4997540;28;20670;-91
2023/03/30 13:55:26;;;;;;;;;;;16.60;99.90;;;;;;4999114;28;19910;-91
2023/03/30 13:57:55;;;;;;;;;;;16.60;99.90;;;;;;4998811;28;19916;-91
2023/03/30 14:00:42;;;;;;;;;;;16.60;99.90;;;;;;5015970;28;19913;-91
2023/03/30 14:03:26;;;;;;;;;;;16.70;99.90;;;;;;4999169;28;19916;-92
2023/03/30 14:05:53;;;;;;;;;;;16.80;99.90;;;;;;4998171;28;19924;-90
2023/03/30 14:08:19;;;;;;;;;;;16.90;99.90;;;;;;4998059;28;19928;-90
2023/03/30 14:10:48;;;;;;;;;;;17.00;99.90;;;;;;4998523;28;20365;-90
2023/03/30 14:13:14;;;;;;;;;;;17.10;99.90;;;;;;4998699;28;20385;-91
2023/03/30 14:15:40;;;;;;;;;;;17.10;99.90;;;;;;4982371;28;19918;-91
2023/03/30 14:18:08;;;;;;;;;;;17.10;98.80;;;;;;4981941;28;20294;-92
2023/03/30 14:20:33;;;;;;;;;;;17.10;99.30;;;;;;4998046;28;19909;-91
2023/03/30 14:22:59;;;;;;;;;;;17.10;99.40;;;;;;4998578;28;20393;-92
2023/03/30 14:25:25;;;;;;;;;;;17.10;98.90;;;;;;4982576;28;19918;-92
2023/03/30 14:27:50;;;;;;;;;;;17.00;99.60;;;;;;4997894;28;20051;-91